sensor_id;sensor_type;location;lat;lon;timestamp;temperature;humidity
54540;SHT30;40438;52.992;18.604;2023-11-21T00:01:24;1.47;92.16
54540;SHT30;40438;52.992;18.604;2023-11-21T00:03:49;1.47;91.85
54540;SHT30;40438;52.992;18.604;2023-11-21T00:06:15;1.40;91.77
54540;SHT30;40438;52.992;18.604;2023-11-21T00:08:41;1.33;91.89
54540;SHT30;40438;52.992;18.604;2023-11-21T00:11:07;1.36;91.62
54540;SHT30;40438;52.992;18.604;2023-11-21T00:13:33;1.33;91.67
54540;SHT30;40438;52.992;18.604;2023-11-21T00:16:00;1.38;91.43
54540;SHT30;40438;52.992;18.604;2023-11-21T00:18:26;1.31;91.12
54540;SHT30;40438;52.992;18.604;2023-11-21T00:20:51;1.44;90.97
54540;SHT30;40438;52.992;18.604;2023-11-21T00:23:17;1.34;91.03
54540;SHT30;40438;52.992;18.604;2023-11-21T00:25:43;1.28;91.10
54540;SHT30;40438;52.992;18.604;2023-11-21T00:28:09;1.27;90.99
54540;SHT30;40438;52.992;18.604;2023-11-21T00:30:35;1.36;90.44
54540;SHT30;40438;52.992;18.604;2023-11-21T00:33:02;1.36;90.33
54540;SHT30;40438;52.992;18.604;2023-11-21T00:35:28;1.28;90.51
54540;SHT30;40438;52.992;18.604;2023-11-21T00:37:53;1.28;90.63
54540;SHT30;40438;52.992;18.604;2023-11-21T00:40:20;1.22;90.97
54540;SHT30;40438;52.992;18.604;2023-11-21T00:42:45;1.28;91.05
54540;SHT30;40438;52.992;18.604;2023-11-21T00:45:11;1.30;91.10
54540;SHT30;40438;52.992;18.604;2023-11-21T00:47:37;1.28;91.19
54540;SHT30;40438;52.992;18.604;2023-11-21T00:50:05;1.22;91.39
54540;SHT30;40438;52.992;18.604;2023-11-21T00:52:31;1.22;91.52
54540;SHT30;40438;52.992;18.604;2023-11-21T00:54:57;1.23;91.63
54540;SHT30;40438;52.992;18.604;2023-11-21T00:57:23;1.26;91.55
54540;SHT30;40438;52.992;18.604;2023-11-21T00:59:49;1.27;91.01
54540;SHT30;40438;52.992;18.604;2023-11-21T01:02:15;1.28;90.71
54540;SHT30;40438;52.992;18.604;2023-11-21T01:04:41;1.26;90.61
54540;SHT30;40438;52.992;18.604;2023-11-21T01:07:08;1.22;90.61
54540;SHT30;40438;52.992;18.604;2023-11-21T01:09:35;1.22;90.71
54540;SHT30;40438;52.992;18.604;2023-11-21T01:12:01;1.22;90.87
54540;SHT30;40438;52.992;18.604;2023-11-21T01:14:27;1.16;91.14
54540;SHT30;40438;52.992;18.604;2023-11-21T01:16:53;1.20;91.17
54540;SHT30;40438;52.992;18.604;2023-11-21T01:19:19;1.22;91.01
54540;SHT30;40438;52.992;18.604;2023-11-21T01:21:44;1.20;91.13
54540;SHT30;40438;52.992;18.604;2023-11-21T01:24:12;1.23;91.02
54540;SHT30;40438;52.992;18.604;2023-11-21T01:26:37;1.22;91.11
54540;SHT30;40438;52.992;18.604;2023-11-21T01:29:03;1.22;91.05
54540;SHT30;40438;52.992;18.604;2023-11-21T01:31:29;1.19;91.22
54540;SHT30;40438;52.992;18.604;2023-11-21T01:33:55;1.17;91.33
54540;SHT30;40438;52.992;18.604;2023-11-21T01:36:20;1.16;91.52
54540;SHT30;40438;52.992;18.604;2023-11-21T01:38:46;1.17;91.58
54540;SHT30;40438;52.992;18.604;2023-11-21T01:41:13;1.15;91.31
54540;SHT30;40438;52.992;18.604;2023-11-21T01:43:40;1.17;91.26
54540;SHT30;40438;52.992;18.604;2023-11-21T01:46:06;1.13;91.31
54540;SHT30;40438;52.992;18.604;2023-11-21T01:48:33;1.15;91.43
54540;SHT30;40438;52.992;18.604;2023-11-21T01:51:00;1.16;91.45
54540;SHT30;40438;52.992;18.604;2023-11-21T01:53:26;1.13;91.59
54540;SHT30;40438;52.992;18.604;2023-11-21T01:55:53;1.13;91.59
54540;SHT30;40438;52.992;18.604;2023-11-21T01:58:20;1.19;91.43
54540;SHT30;40438;52.992;18.604;2023-11-21T02:00:46;1.17;91.16
54540;SHT30;40438;52.992;18.604;2023-11-21T02:03:12;1.16;91.20
54540;SHT30;40438;52.992;18.604;2023-11-21T02:05:38;1.16;91.29
54540;SHT30;40438;52.992;18.604;2023-11-21T02:08:04;1.15;91.25
54540;SHT30;40438;52.992;18.604;2023-11-21T02:10:30;1.15;91.28
54540;SHT30;40438;52.992;18.604;2023-11-21T02:12:57;1.11;91.23
54540;SHT30;40438;52.992;18.604;2023-11-21T02:15:25;1.13;91.42
54540;SHT30;40438;52.992;18.604;2023-11-21T02:17:50;1.15;91.23
54540;SHT30;40438;52.992;18.604;2023-11-21T02:20:17;1.11;91.00
54540;SHT30;40438;52.992;18.604;2023-11-21T02:22:43;1.07;91.01
54540;SHT30;40438;52.992;18.604;2023-11-21T02:25:11;1.07;91.07
54540;SHT30;40438;52.992;18.604;2023-11-21T02:27:36;1.10;91.02
54540;SHT30;40438;52.992;18.604;2023-11-21T02:30:03;1.17;90.89
54540;SHT30;40438;52.992;18.604;2023-11-21T02:32:29;1.13;90.82
54540;SHT30;40438;52.992;18.604;2023-11-21T02:34:54;1.09;90.85
54540;SHT30;40438;52.992;18.604;2023-11-21T02:37:20;1.15;90.54
54540;SHT30;40438;52.992;18.604;2023-11-21T02:39:46;1.10;90.79
54540;SHT30;40438;52.992;18.604;2023-11-21T02:42:13;1.04;90.69
54540;SHT30;40438;52.992;18.604;2023-11-21T02:44:39;1.15;90.72
54540;SHT30;40438;52.992;18.604;2023-11-21T02:47:05;1.11;90.49
54540;SHT30;40438;52.992;18.604;2023-11-21T02:49:31;1.13;90.58
54540;SHT30;40438;52.992;18.604;2023-11-21T02:51:57;1.04;90.75
54540;SHT30;40438;52.992;18.604;2023-11-21T02:54:23;1.04;90.95
54540;SHT30;40438;52.992;18.604;2023-11-21T02:56:49;1.06;90.87
54540;SHT30;40438;52.992;18.604;2023-11-21T02:59:16;1.03;90.97
54540;SHT30;40438;52.992;18.604;2023-11-21T03:01:42;1.10;90.87
54540;SHT30;40438;52.992;18.604;2023-11-21T03:04:08;1.03;90.80
54540;SHT30;40438;52.992;18.604;2023-11-21T03:06:34;1.06;90.62
54540;SHT30;40438;52.992;18.604;2023-11-21T03:09:00;1.07;90.43
54540;SHT30;40438;52.992;18.604;2023-11-21T03:11:25;1.06;90.53
54540;SHT30;40438;52.992;18.604;2023-11-21T03:13:51;1.09;90.40
54540;SHT30;40438;52.992;18.604;2023-11-21T03:16:18;0.99;90.53
54540;SHT30;40438;52.992;18.604;2023-11-21T03:18:45;1.00;90.68
54540;SHT30;40438;52.992;18.604;2023-11-21T03:21:12;1.04;90.71
54540;SHT30;40438;52.992;18.604;2023-11-21T03:23:37;1.00;90.63
54540;SHT30;40438;52.992;18.604;2023-11-21T03:26:04;0.99;90.45
54540;SHT30;40438;52.992;18.604;2023-11-21T03:28:30;1.00;90.25
54540;SHT30;40438;52.992;18.604;2023-11-21T03:30:56;0.93;90.20
54540;SHT30;40438;52.992;18.604;2023-11-21T03:33:24;0.93;90.31
54540;SHT30;40438;52.992;18.604;2023-11-21T03:35:50;0.93;90.30
54540;SHT30;40438;52.992;18.604;2023-11-21T03:38:16;0.92;90.40
54540;SHT30;40438;52.992;18.604;2023-11-21T03:40:42;0.90;90.27
54540;SHT30;40438;52.992;18.604;2023-11-21T03:43:08;0.93;89.68
54540;SHT30;40438;52.992;18.604;2023-11-21T03:45:33;0.90;89.66
54540;SHT30;40438;52.992;18.604;2023-11-21T03:47:59;0.90;89.37
54540;SHT30;40438;52.992;18.604;2023-11-21T03:50:26;0.89;89.42
54540;SHT30;40438;52.992;18.604;2023-11-21T03:52:52;0.92;89.36
54540;SHT30;40438;52.992;18.604;2023-11-21T03:55:18;0.83;89.27
54540;SHT30;40438;52.992;18.604;2023-11-21T03:57:44;0.82;89.48
54540;SHT30;40438;52.992;18.604;2023-11-21T04:00:11;0.93;89.47
54540;SHT30;40438;52.992;18.604;2023-11-21T04:02:39;0.89;89.39
54540;SHT30;40438;52.992;18.604;2023-11-21T04:05:05;0.90;89.49
54540;SHT30;40438;52.992;18.604;2023-11-21T04:07:33;0.88;89.61
54540;SHT30;40438;52.992;18.604;2023-11-21T04:09:59;0.86;89.61
54540;SHT30;40438;52.992;18.604;2023-11-21T04:12:24;0.88;89.63
54540;SHT30;40438;52.992;18.604;2023-11-21T04:14:50;0.92;89.65
54540;SHT30;40438;52.992;18.604;2023-11-21T04:17:18;0.86;89.56
54540;SHT30;40438;52.992;18.604;2023-11-21T04:19:43;0.83;89.18
54540;SHT30;40438;52.992;18.604;2023-11-21T04:22:09;0.86;89.00
54540;SHT30;40438;52.992;18.604;2023-11-21T04:24:36;0.83;89.06
54540;SHT30;40438;52.992;18.604;2023-11-21T04:27:02;0.83;89.14
54540;SHT30;40438;52.992;18.604;2023-11-21T04:29:28;0.83;89.32
54540;SHT30;40438;52.992;18.604;2023-11-21T04:31:54;0.83;89.19
54540;SHT30;40438;52.992;18.604;2023-11-21T04:34:20;0.79;89.22
54540;SHT30;40438;52.992;18.604;2023-11-21T04:36:45;0.73;89.18
54540;SHT30;40438;52.992;18.604;2023-11-21T04:39:11;0.78;88.85
54540;SHT30;40438;52.992;18.604;2023-11-21T04:41:38;0.66;88.43
54540;SHT30;40438;52.992;18.604;2023-11-21T04:44:05;0.69;88.45
54540;SHT30;40438;52.992;18.604;2023-11-21T04:46:30;0.70;88.31
54540;SHT30;40438;52.992;18.604;2023-11-21T04:48:56;0.72;88.07
54540;SHT30;40438;52.992;18.604;2023-11-21T04:51:22;0.68;87.73
54540;SHT30;40438;52.992;18.604;2023-11-21T04:53:48;0.62;87.90
54540;SHT30;40438;52.992;18.604;2023-11-21T04:56:13;0.68;87.79
54540;SHT30;40438;52.992;18.604;2023-11-21T04:58:41;0.64;87.86
54540;SHT30;40438;52.992;18.604;2023-11-21T05:01:07;0.66;88.12
54540;SHT30;40438;52.992;18.604;2023-11-21T05:03:33;0.64;88.24
54540;SHT30;40438;52.992;18.604;2023-11-21T05:05:59;0.64;88.25
54540;SHT30;40438;52.992;18.604;2023-11-21T05:08:25;0.57;88.24
54540;SHT30;40438;52.992;18.604;2023-11-21T05:10:51;0.59;88.17
54540;SHT30;40438;52.992;18.604;2023-11-21T05:13:17;0.65;88.10
54540;SHT30;40438;52.992;18.604;2023-11-21T05:15:44;0.65;87.73
54540;SHT30;40438;52.992;18.604;2023-11-21T05:18:10;0.61;87.75
54540;SHT30;40438;52.992;18.604;2023-11-21T05:20:36;0.64;87.83
54540;SHT30;40438;52.992;18.604;2023-11-21T05:23:02;0.51;87.84
54540;SHT30;40438;52.992;18.604;2023-11-21T05:25:27;0.52;88.09
54540;SHT30;40438;52.992;18.604;2023-11-21T05:27:53;0.59;88.11
54540;SHT30;40438;52.992;18.604;2023-11-21T05:30:19;0.54;88.10
54540;SHT30;40438;52.992;18.604;2023-11-21T05:32:46;0.57;87.95
54540;SHT30;40438;52.992;18.604;2023-11-21T05:35:12;0.54;87.93
54540;SHT30;40438;52.992;18.604;2023-11-21T05:37:38;0.55;87.95
54540;SHT30;40438;52.992;18.604;2023-11-21T05:40:06;0.54;87.87
54540;SHT30;40438;52.992;18.604;2023-11-21T05:42:33;0.51;88.03
54540;SHT30;40438;52.992;18.604;2023-11-21T05:44:59;0.55;87.61
54540;SHT30;40438;52.992;18.604;2023-11-21T05:47:24;0.51;87.64
54540;SHT30;40438;52.992;18.604;2023-11-21T05:49:52;0.57;87.49
54540;SHT30;40438;52.992;18.604;2023-11-21T05:52:18;0.57;87.13
54540;SHT30;40438;52.992;18.604;2023-11-21T05:54:43;0.51;87.31
54540;SHT30;40438;52.992;18.604;2023-11-21T05:57:09;0.47;87.67
54540;SHT30;40438;52.992;18.604;2023-11-21T05:59:35;0.42;87.24
54540;SHT30;40438;52.992;18.604;2023-11-21T06:02:01;0.44;87.30
54540;SHT30;40438;52.992;18.604;2023-11-21T06:04:26;0.42;87.43
54540;SHT30;40438;52.992;18.604;2023-11-21T06:06:54;0.42;87.48
54540;SHT30;40438;52.992;18.604;2023-11-21T06:09:20;0.49;87.34
54540;SHT30;40438;52.992;18.604;2023-11-21T06:11:45;0.45;87.18
54540;SHT30;40438;52.992;18.604;2023-11-21T06:14:11;0.47;87.02
54540;SHT30;40438;52.992;18.604;2023-11-21T06:16:37;0.48;87.10
54540;SHT30;40438;52.992;18.604;2023-11-21T06:19:03;0.55;86.53
54540;SHT30;40438;52.992;18.604;2023-11-21T06:21:28;0.45;86.78
54540;SHT30;40438;52.992;18.604;2023-11-21T06:23:56;0.41;87.07
54540;SHT30;40438;52.992;18.604;2023-11-21T06:26:21;0.47;86.95
54540;SHT30;40438;52.992;18.604;2023-11-21T06:28:47;0.44;87.11
54540;SHT30;40438;52.992;18.604;2023-11-21T06:31:13;0.41;86.80
54540;SHT30;40438;52.992;18.604;2023-11-21T06:33:39;0.44;86.84
54540;SHT30;40438;52.992;18.604;2023-11-21T06:36:05;0.41;86.90
54540;SHT30;40438;52.992;18.604;2023-11-21T06:38:31;0.45;86.79
54540;SHT30;40438;52.992;18.604;2023-11-21T06:40:58;0.44;86.58
54540;SHT30;40438;52.992;18.604;2023-11-21T06:43:24;0.41;86.27
54540;SHT30;40438;52.992;18.604;2023-11-21T06:45:51;0.42;86.26
54540;SHT30;40438;52.992;18.604;2023-11-21T06:48:16;0.36;86.32
54540;SHT30;40438;52.992;18.604;2023-11-21T06:50:42;0.31;86.53
54540;SHT30;40438;52.992;18.604;2023-11-21T06:53:08;0.33;86.67
54540;SHT30;40438;52.992;18.604;2023-11-21T06:55:34;0.34;86.70
54540;SHT30;40438;52.992;18.604;2023-11-21T06:58:01;0.41;86.18
54540;SHT30;40438;52.992;18.604;2023-11-21T07:00:27;0.37;85.85
54540;SHT30;40438;52.992;18.604;2023-11-21T07:02:53;0.30;86.12
54540;SHT30;40438;52.992;18.604;2023-11-21T07:05:19;0.28;86.27
54540;SHT30;40438;52.992;18.604;2023-11-21T07:07:46;0.30;86.14
54540;SHT30;40438;52.992;18.604;2023-11-21T07:10:11;0.36;86.01
54540;SHT30;40438;52.992;18.604;2023-11-21T07:12:37;0.42;85.90
54540;SHT30;40438;52.992;18.604;2023-11-21T07:15:06;0.40;85.70
54540;SHT30;40438;52.992;18.604;2023-11-21T07:17:32;0.36;85.66
54540;SHT30;40438;52.992;18.604;2023-11-21T07:19:58;0.30;85.63
54540;SHT30;40438;52.992;18.604;2023-11-21T07:22:24;0.27;85.58
54540;SHT30;40438;52.992;18.604;2023-11-21T07:24:50;0.23;85.52
54540;SHT30;40438;52.992;18.604;2023-11-21T07:27:16;0.24;85.82
54540;SHT30;40438;52.992;18.604;2023-11-21T07:29:42;0.26;85.65
54540;SHT30;40438;52.992;18.604;2023-11-21T07:32:09;0.27;85.75
54540;SHT30;40438;52.992;18.604;2023-11-21T07:34:35;0.28;85.96
54540;SHT30;40438;52.992;18.604;2023-11-21T07:37:00;0.34;86.02
54540;SHT30;40438;52.992;18.604;2023-11-21T07:39:26;0.33;85.64
54540;SHT30;40438;52.992;18.604;2023-11-21T07:41:52;0.31;85.28
54540;SHT30;40438;52.992;18.604;2023-11-21T07:44:18;0.34;85.25
54540;SHT30;40438;52.992;18.604;2023-11-21T07:46:43;0.40;85.11
54540;SHT30;40438;52.992;18.604;2023-11-21T07:49:11;0.38;85.02
54540;SHT30;40438;52.992;18.604;2023-11-21T07:51:37;0.33;85.18
54540;SHT30;40438;52.992;18.604;2023-11-21T07:54:03;0.27;85.52
54540;SHT30;40438;52.992;18.604;2023-11-21T07:56:28;0.24;85.49
54540;SHT30;40438;52.992;18.604;2023-11-21T07:58:54;0.28;85.37
54540;SHT30;40438;52.992;18.604;2023-11-21T08:01:20;0.24;85.55
54540;SHT30;40438;52.992;18.604;2023-11-21T08:03:46;0.33;85.58
54540;SHT30;40438;52.992;18.604;2023-11-21T08:06:13;0.31;85.29
54540;SHT30;40438;52.992;18.604;2023-11-21T08:08:38;0.34;85.32
54540;SHT30;40438;52.992;18.604;2023-11-21T08:11:05;0.33;85.38
54540;SHT30;40438;52.992;18.604;2023-11-21T08:13:31;0.38;85.33
54540;SHT30;40438;52.992;18.604;2023-11-21T08:15:57;0.36;85.44
54540;SHT30;40438;52.992;18.604;2023-11-21T08:18:23;0.37;85.04
54540;SHT30;40438;52.992;18.604;2023-11-21T08:20:49;0.34;85.02
54540;SHT30;40438;52.992;18.604;2023-11-21T08:23:16;0.33;84.32
54540;SHT30;40438;52.992;18.604;2023-11-21T08:25:42;0.30;84.13
54540;SHT30;40438;52.992;18.604;2023-11-21T08:28:08;0.33;84.34
54540;SHT30;40438;52.992;18.604;2023-11-21T08:30:34;0.37;84.05
54540;SHT30;40438;52.992;18.604;2023-11-21T08:33:00;0.37;84.27
54540;SHT30;40438;52.992;18.604;2023-11-21T08:35:25;0.42;84.27
54540;SHT30;40438;52.992;18.604;2023-11-21T08:37:51;0.40;84.15
54540;SHT30;40438;52.992;18.604;2023-11-21T08:40:19;0.45;84.08
54540;SHT30;40438;52.992;18.604;2023-11-21T08:42:44;0.44;83.77
54540;SHT30;40438;52.992;18.604;2023-11-21T08:45:10;0.49;83.53
54540;SHT30;40438;52.992;18.604;2023-11-21T08:47:36;0.52;83.67
54540;SHT30;40438;52.992;18.604;2023-11-21T08:50:02;0.59;83.21
54540;SHT30;40438;52.992;18.604;2023-11-21T08:52:28;0.51;83.48
54540;SHT30;40438;52.992;18.604;2023-11-21T08:54:54;0.51;83.48
54540;SHT30;40438;52.992;18.604;2023-11-21T08:57:21;0.49;83.12
54540;SHT30;40438;52.992;18.604;2023-11-21T08:59:47;0.48;83.10
54540;SHT30;40438;52.992;18.604;2023-11-21T09:02:12;0.44;83.47
54540;SHT30;40438;52.992;18.604;2023-11-21T09:04:38;0.45;83.49
54540;SHT30;40438;52.992;18.604;2023-11-21T09:07:04;0.47;83.18
54540;SHT30;40438;52.992;18.604;2023-11-21T09:09:30;0.48;83.31
54540;SHT30;40438;52.992;18.604;2023-11-21T09:11:56;0.49;83.44
54540;SHT30;40438;52.992;18.604;2023-11-21T09:14:23;0.54;82.88
54540;SHT30;40438;52.992;18.604;2023-11-21T09:16:48;0.51;83.00
54540;SHT30;40438;52.992;18.604;2023-11-21T09:19:14;0.49;83.18
54540;SHT30;40438;52.992;18.604;2023-11-21T09:21:40;0.44;82.94
54540;SHT30;40438;52.992;18.604;2023-11-21T09:24:07;0.47;83.07
54540;SHT30;40438;52.992;18.604;2023-11-21T09:26:32;0.48;83.20
54540;SHT30;40438;52.992;18.604;2023-11-21T09:28:58;0.57;82.80
54540;SHT30;40438;52.992;18.604;2023-11-21T09:31:27;0.61;82.56
54540;SHT30;40438;52.992;18.604;2023-11-21T09:33:53;0.62;82.47
54540;SHT30;40438;52.992;18.604;2023-11-21T09:36:19;0.69;82.40
54540;SHT30;40438;52.992;18.604;2023-11-21T09:38:44;0.78;81.90
54540;SHT30;40438;52.992;18.604;2023-11-21T09:41:15;0.78;81.66
54540;SHT30;40438;52.992;18.604;2023-11-21T09:43:44;0.79;81.65
54540;SHT30;40438;52.992;18.604;2023-11-21T09:46:12;0.75;81.31
54540;SHT30;40438;52.992;18.604;2023-11-21T09:48:40;0.79;81.50
54540;SHT30;40438;52.992;18.604;2023-11-21T09:51:06;0.79;81.28
54540;SHT30;40438;52.992;18.604;2023-11-21T09:53:35;0.83;81.38
54540;SHT30;40438;52.992;18.604;2023-11-21T09:56:01;0.80;81.56
54540;SHT30;40438;52.992;18.604;2023-11-21T09:58:27;0.89;81.65
54540;SHT30;40438;52.992;18.604;2023-11-21T10:00:55;0.89;81.84
54540;SHT30;40438;52.992;18.604;2023-11-21T10:03:21;0.90;81.49
54540;SHT30;40438;52.992;18.604;2023-11-21T10:05:50;0.88;81.55
54540;SHT30;40438;52.992;18.604;2023-11-21T10:08:17;0.90;81.39
54540;SHT30;40438;52.992;18.604;2023-11-21T10:10:46;0.83;82.07
54540;SHT30;40438;52.992;18.604;2023-11-21T10:13:15;0.83;81.71
54540;SHT30;40438;52.992;18.604;2023-11-21T10:15:41;0.88;81.47
54540;SHT30;40438;52.992;18.604;2023-11-21T10:18:07;0.86;81.73
54540;SHT30;40438;52.992;18.604;2023-11-21T10:20:34;0.89;81.34
54540;SHT30;40438;52.992;18.604;2023-11-21T10:23:01;0.88;81.05
54540;SHT30;40438;52.992;18.604;2023-11-21T10:25:27;0.90;80.99
54540;SHT30;40438;52.992;18.604;2023-11-21T10:27:57;0.89;80.39
54540;SHT30;40438;52.992;18.604;2023-11-21T10:30:27;0.89;80.76
54540;SHT30;40438;52.992;18.604;2023-11-21T10:32:58;0.89;80.56
54540;SHT30;40438;52.992;18.604;2023-11-21T10:35:24;0.90;80.13
54540;SHT30;40438;52.992;18.604;2023-11-21T10:38:01;0.93;80.54
54540;SHT30;40438;52.992;18.604;2023-11-21T10:40:27;0.93;80.64
54540;SHT30;40438;52.992;18.604;2023-11-21T10:42:53;0.93;80.41
54540;SHT30;40438;52.992;18.604;2023-11-21T10:45:19;0.96;80.37
54540;SHT30;40438;52.992;18.604;2023-11-21T10:47:45;0.99;80.18
54540;SHT30;40438;52.992;18.604;2023-11-21T10:50:10;0.96;80.14
54540;SHT30;40438;52.992;18.604;2023-11-21T10:52:36;0.97;79.63
54540;SHT30;40438;52.992;18.604;2023-11-21T10:55:16;1.03;79.72
54540;SHT30;40438;52.992;18.604;2023-11-21T10:57:42;0.99;79.65
54540;SHT30;40438;52.992;18.604;2023-11-21T11:00:09;0.99;79.53
54540;SHT30;40438;52.992;18.604;2023-11-21T11:02:36;0.92;79.51
54540;SHT30;40438;52.992;18.604;2023-11-21T11:05:02;0.90;79.82
54540;SHT30;40438;52.992;18.604;2023-11-21T11:07:28;0.90;80.05
54540;SHT30;40438;52.992;18.604;2023-11-21T11:09:55;0.88;80.36
54540;SHT30;40438;52.992;18.604;2023-11-21T11:12:23;0.85;80.51
54540;SHT30;40438;52.992;18.604;2023-11-21T11:14:49;0.95;80.07
54540;SHT30;40438;52.992;18.604;2023-11-21T11:17:15;0.93;80.23
54540;SHT30;40438;52.992;18.604;2023-11-21T11:19:41;1.01;80.17
54540;SHT30;40438;52.992;18.604;2023-11-21T11:22:16;1.04;79.96
54540;SHT30;40438;52.992;18.604;2023-11-21T11:25:03;1.01;79.70
54540;SHT30;40438;52.992;18.604;2023-11-21T11:27:40;1.01;79.68
54540;SHT30;40438;52.992;18.604;2023-11-21T11:30:13;0.97;79.98
54540;SHT30;40438;52.992;18.604;2023-11-21T11:32:48;0.97;80.41
54540;SHT30;40438;52.992;18.604;2023-11-21T11:35:24;0.97;80.62
54540;SHT30;40438;52.992;18.604;2023-11-21T11:37:51;0.97;80.69
54540;SHT30;40438;52.992;18.604;2023-11-21T11:40:17;0.99;81.02
54540;SHT30;40438;52.992;18.604;2023-11-21T11:42:56;1.09;81.68
54540;SHT30;40438;52.992;18.604;2023-11-21T11:45:22;1.10;81.02
54540;SHT30;40438;52.992;18.604;2023-11-21T11:47:56;1.04;81.00
54540;SHT30;40438;52.992;18.604;2023-11-21T11:50:22;1.06;80.93
54540;SHT30;40438;52.992;18.604;2023-11-21T11:52:49;1.04;80.91
54540;SHT30;40438;52.992;18.604;2023-11-21T11:55:16;1.06;81.06
54540;SHT30;40438;52.992;18.604;2023-11-21T11:57:42;1.10;80.71
54540;SHT30;40438;52.992;18.604;2023-11-21T12:00:15;1.11;80.58
54540;SHT30;40438;52.992;18.604;2023-11-21T12:02:42;1.06;80.72
54540;SHT30;40438;52.992;18.604;2023-11-21T12:05:10;1.07;81.25
54540;SHT30;40438;52.992;18.604;2023-11-21T12:07:42;1.09;81.27
54540;SHT30;40438;52.992;18.604;2023-11-21T12:10:11;1.10;80.57
54540;SHT30;40438;52.992;18.604;2023-11-21T12:12:37;1.13;80.51
54540;SHT30;40438;52.992;18.604;2023-11-21T12:15:07;1.13;80.36
54540;SHT30;40438;52.992;18.604;2023-11-21T12:17:34;1.13;80.30
54540;SHT30;40438;52.992;18.604;2023-11-21T12:20:02;1.15;80.57
54540;SHT30;40438;52.992;18.604;2023-11-21T12:22:28;1.15;80.16
54540;SHT30;40438;52.992;18.604;2023-11-21T12:24:54;1.13;79.91
54540;SHT30;40438;52.992;18.604;2023-11-21T12:27:21;1.10;79.86
54540;SHT30;40438;52.992;18.604;2023-11-21T12:29:46;1.07;79.62
54540;SHT30;40438;52.992;18.604;2023-11-21T12:32:12;1.09;79.21
54540;SHT30;40438;52.992;18.604;2023-11-21T12:34:40;1.09;79.57
54540;SHT30;40438;52.992;18.604;2023-11-21T12:37:06;1.16;79.88
54540;SHT30;40438;52.992;18.604;2023-11-21T12:39:31;1.16;79.76
54540;SHT30;40438;52.992;18.604;2023-11-21T12:41:57;1.15;79.69
54540;SHT30;40438;52.992;18.604;2023-11-21T12:44:23;1.07;79.80
54540;SHT30;40438;52.992;18.604;2023-11-21T12:46:49;1.09;79.46
54540;SHT30;40438;52.992;18.604;2023-11-21T12:49:15;1.13;79.07
54540;SHT30;40438;52.992;18.604;2023-11-21T12:51:43;1.07;79.26
54540;SHT30;40438;52.992;18.604;2023-11-21T12:54:09;1.27;78.56
54540;SHT30;40438;52.992;18.604;2023-11-21T12:56:38;1.19;78.78
54540;SHT30;40438;52.992;18.604;2023-11-21T12:59:04;1.11;79.43
54540;SHT30;40438;52.992;18.604;2023-11-21T13:01:30;1.19;79.20
54540;SHT30;40438;52.992;18.604;2023-11-21T13:03:57;1.16;78.85
54540;SHT30;40438;52.992;18.604;2023-11-21T13:06:23;1.16;78.97
54540;SHT30;40438;52.992;18.604;2023-11-21T13:08:50;1.13;78.56
54540;SHT30;40438;52.992;18.604;2023-11-21T13:11:16;1.20;78.49
54540;SHT30;40438;52.992;18.604;2023-11-21T13:13:42;1.15;78.94
54540;SHT30;40438;52.992;18.604;2023-11-21T13:16:09;1.13;78.90
54540;SHT30;40438;52.992;18.604;2023-11-21T13:18:34;1.13;78.75
54540;SHT30;40438;52.992;18.604;2023-11-21T13:21:02;1.09;78.63
54540;SHT30;40438;52.992;18.604;2023-11-21T13:23:28;1.06;78.54
54540;SHT30;40438;52.992;18.604;2023-11-21T13:25:55;1.13;78.65
54540;SHT30;40438;52.992;18.604;2023-11-21T13:28:21;1.09;78.66
54540;SHT30;40438;52.992;18.604;2023-11-21T13:30:47;1.09;78.71
54540;SHT30;40438;52.992;18.604;2023-11-21T13:33:13;1.11;79.06
54540;SHT30;40438;52.992;18.604;2023-11-21T13:35:39;1.06;79.35
54540;SHT30;40438;52.992;18.604;2023-11-21T13:38:06;1.13;79.17
54540;SHT30;40438;52.992;18.604;2023-11-21T13:40:32;1.16;78.94
54540;SHT30;40438;52.992;18.604;2023-11-21T13:43:00;1.10;79.01
54540;SHT30;40438;52.992;18.604;2023-11-21T13:45:26;1.15;78.99
54540;SHT30;40438;52.992;18.604;2023-11-21T13:47:52;1.17;78.72
54540;SHT30;40438;52.992;18.604;2023-11-21T13:50:18;1.10;77.48
54540;SHT30;40438;52.992;18.604;2023-11-21T13:52:44;1.15;77.84
54540;SHT30;40438;52.992;18.604;2023-11-21T13:55:10;1.24;77.66
54540;SHT30;40438;52.992;18.604;2023-11-21T13:57:36;1.20;77.12
54540;SHT30;40438;52.992;18.604;2023-11-21T14:00:04;1.15;76.43
54540;SHT30;40438;52.992;18.604;2023-11-21T14:02:30;1.09;76.60
54540;SHT30;40438;52.992;18.604;2023-11-21T14:04:56;1.13;76.72
54540;SHT30;40438;52.992;18.604;2023-11-21T14:07:23;1.07;76.80
54540;SHT30;40438;52.992;18.604;2023-11-21T14:09:49;1.07;76.82
54540;SHT30;40438;52.992;18.604;2023-11-21T14:12:15;1.06;75.94
54540;SHT30;40438;52.992;18.604;2023-11-21T14:14:40;1.03;76.18
54540;SHT30;40438;52.992;18.604;2023-11-21T14:17:08;1.04;76.12
54540;SHT30;40438;52.992;18.604;2023-11-21T14:19:34;1.10;76.02
54540;SHT30;40438;52.992;18.604;2023-11-21T14:22:00;1.07;76.22
54540;SHT30;40438;52.992;18.604;2023-11-21T14:24:25;0.99;76.31
54540;SHT30;40438;52.992;18.604;2023-11-21T14:26:51;1.00;76.01
54540;SHT30;40438;52.992;18.604;2023-11-21T14:29:18;1.01;76.13
54540;SHT30;40438;52.992;18.604;2023-11-21T14:31:44;1.07;76.17
54540;SHT30;40438;52.992;18.604;2023-11-21T14:34:11;1.04;76.03
54540;SHT30;40438;52.992;18.604;2023-11-21T14:36:37;0.97;75.62
54540;SHT30;40438;52.992;18.604;2023-11-21T14:39:03;0.96;75.98
54540;SHT30;40438;52.992;18.604;2023-11-21T14:41:29;1.01;76.04
54540;SHT30;40438;52.992;18.604;2023-11-21T14:43:55;0.99;76.25
54540;SHT30;40438;52.992;18.604;2023-11-21T14:46:21;0.97;76.45
54540;SHT30;40438;52.992;18.604;2023-11-21T14:48:47;1.01;76.43
54540;SHT30;40438;52.992;18.604;2023-11-21T14:51:14;1.04;76.10
54540;SHT30;40438;52.992;18.604;2023-11-21T14:53:40;1.01;76.19
54540;SHT30;40438;52.992;18.604;2023-11-21T14:56:07;0.99;76.81
54540;SHT30;40438;52.992;18.604;2023-11-21T14:58:32;0.97;76.98
54540;SHT30;40438;52.992;18.604;2023-11-21T15:00:59;0.99;77.27
54540;SHT30;40438;52.992;18.604;2023-11-21T15:03:25;1.01;77.31
54540;SHT30;40438;52.992;18.604;2023-11-21T15:05:51;0.92;77.14
54540;SHT30;40438;52.992;18.604;2023-11-21T15:08:19;0.99;77.00
54540;SHT30;40438;52.992;18.604;2023-11-21T15:10:45;0.96;77.29
54540;SHT30;40438;52.992;18.604;2023-11-21T15:13:10;1.01;77.32
54540;SHT30;40438;52.992;18.604;2023-11-21T15:15:36;0.95;76.93
54540;SHT30;40438;52.992;18.604;2023-11-21T15:18:02;0.95;77.01
54540;SHT30;40438;52.992;18.604;2023-11-21T15:20:28;0.95;76.86
54540;SHT30;40438;52.992;18.604;2023-11-21T15:22:54;0.96;76.76
54540;SHT30;40438;52.992;18.604;2023-11-21T15:25:21;0.97;76.49